sensor_id;sensor_type;location;lat;lon;timestamp;temperature;humidity
921;DHT22;447;51.332;6.778;2023-05-16T00:01:44;20.90;91.30
921;DHT22;447;51.332;6.778;2023-05-16T00:04:10;20.90;91.30
921;DHT22;447;51.332;6.778;2023-05-16T00:06:36;20.90;91.30
921;DHT22;447;51.332;6.778;2023-05-16T00:09:02;20.80;91.30
921;DHT22;447;51.332;6.778;2023-05-16T00:11:28;20.80;91.30
921;DHT22;447;51.332;6.778;2023-05-16T00:13:54;20.80;91.30
921;DHT22;447;51.332;6.778;2023-05-16T00:16:20;20.80;91.30
921;DHT22;447;51.332;6.778;2023-05-16T00:18:46;20.70;91.30
921;DHT22;447;51.332;6.778;2023-05-16T00:21:12;20.70;91.30
921;DHT22;447;51.332;6.778;2023-05-16T00:23:38;20.70;91.30
921;DHT22;447;51.332;6.778;2023-05-16T00:26:04;20.70;91.30
921;DHT22;447;51.332;6.778;2023-05-16T00:28:30;20.60;91.30
921;DHT22;447;51.332;6.778;2023-05-16T00:30:59;20.60;91.30
921;DHT22;447;51.332;6.778;2023-05-16T00:33:25;20.70;91.30
921;DHT22;447;51.332;6.778;2023-05-16T00:35:51;20.60;91.30
921;DHT22;447;51.332;6.778;2023-05-16T00:38:18;20.60;91.30
921;DHT22;447;51.332;6.778;2023-05-16T00:40:44;20.60;91.30
921;DHT22;447;51.332;6.778;2023-05-16T00:43:11;20.60;91.30
921;DHT22;447;51.332;6.778;2023-05-16T00:45:39;20.50;91.20
921;DHT22;447;51.332;6.778;2023-05-16T00:48:05;20.50;91.20
921;DHT22;447;51.332;6.778;2023-05-16T00:50:36;20.50;91.20
921;DHT22;447;51.332;6.778;2023-05-16T00:53:03;20.50;91.20
921;DHT22;447;51.332;6.778;2023-05-16T00:55:29;20.40;91.10
921;DHT22;447;51.332;6.778;2023-05-16T00:57:57;20.40;91.10
921;DHT22;447;51.332;6.778;2023-05-16T01:00:24;20.30;91.00
921;DHT22;447;51.332;6.778;2023-05-16T01:02:55;20.30;91.10
921;DHT22;447;51.332;6.778;2023-05-16T01:05:27;20.30;91.10
921;DHT22;447;51.332;6.778;2023-05-16T01:07:53;20.30;91.10
921;DHT22;447;51.332;6.778;2023-05-16T01:10:19;20.30;91.10
921;DHT22;447;51.332;6.778;2023-05-16T01:15:58;20.20;91.00
921;DHT22;447;51.332;6.778;2023-05-16T01:18:34;20.20;91.00
921;DHT22;447;51.332;6.778;2023-05-16T01:21:23;20.20;91.00
921;DHT22;447;51.332;6.778;2023-05-16T01:24:08;20.10;91.00
921;DHT22;447;51.332;6.778;2023-05-16T01:26:43;20.10;91.00
921;DHT22;447;51.332;6.778;2023-05-16T01:29:09;20.10;91.00
921;DHT22;447;51.332;6.778;2023-05-16T01:31:36;20.10;91.10
921;DHT22;447;51.332;6.778;2023-05-16T01:34:03;20.10;91.10
921;DHT22;447;51.332;6.778;2023-05-16T01:36:40;20.10;91.10
921;DHT22;447;51.332;6.778;2023-05-16T01:39:36;20.00;91.10
921;DHT22;447;51.332;6.778;2023-05-16T01:42:03;20.00;91.10
921;DHT22;447;51.332;6.778;2023-05-16T01:44:45;20.00;91.10
921;DHT22;447;51.332;6.778;2023-05-16T01:47:19;20.00;91.10
921;DHT22;447;51.332;6.778;2023-05-16T01:49:57;20.00;91.10
921;DHT22;447;51.332;6.778;2023-05-16T01:52:33;19.90;91.00
921;DHT22;447;51.332;6.778;2023-05-16T01:55:03;20.00;91.20
921;DHT22;447;51.332;6.778;2023-05-16T01:57:29;19.90;91.10
921;DHT22;447;51.332;6.778;2023-05-16T01:59:59;19.90;91.10
921;DHT22;447;51.332;6.778;2023-05-16T02:02:27;19.90;91.20
921;DHT22;447;51.332;6.778;2023-05-16T02:04:56;19.90;91.20
921;DHT22;447;51.332;6.778;2023-05-16T02:07:22;19.90;91.20
921;DHT22;447;51.332;6.778;2023-05-16T02:09:50;19.90;91.20
921;DHT22;447;51.332;6.778;2023-05-16T02:12:16;19.90;91.20
921;DHT22;447;51.332;6.778;2023-05-16T02:14:46;19.80;91.20
921;DHT22;447;51.332;6.778;2023-05-16T02:17:12;19.80;91.10
921;DHT22;447;51.332;6.778;2023-05-16T02:19:40;19.80;91.10
921;DHT22;447;51.332;6.778;2023-05-16T02:22:11;19.80;91.10
921;DHT22;447;51.332;6.778;2023-05-16T02:24:43;19.80;91.10
921;DHT22;447;51.332;6.778;2023-05-16T02:27:13;19.70;91.10
921;DHT22;447;51.332;6.778;2023-05-16T02:29:39;19.70;91.10
921;DHT22;447;51.332;6.778;2023-05-16T02:32:07;19.70;91.10
921;DHT22;447;51.332;6.778;2023-05-16T02:34:33;19.70;91.00
921;DHT22;447;51.332;6.778;2023-05-16T02:37:00;19.70;91.00
921;DHT22;447;51.332;6.778;2023-05-16T02:39:28;19.70;91.00
921;DHT22;447;51.332;6.778;2023-05-16T02:41:54;19.70;91.00
921;DHT22;447;51.332;6.778;2023-05-16T02:44:20;19.60;91.00
921;DHT22;447;51.332;6.778;2023-05-16T02:46:46;19.60;91.00
921;DHT22;447;51.332;6.778;2023-05-16T02:49:14;19.60;91.00
921;DHT22;447;51.332;6.778;2023-05-16T02:51:40;19.50;90.90
921;DHT22;447;51.332;6.778;2023-05-16T02:54:06;19.50;90.90
921;DHT22;447;51.332;6.778;2023-05-16T02:56:34;19.50;90.90
921;DHT22;447;51.332;6.778;2023-05-16T02:59:03;19.50;90.80
921;DHT22;447;51.332;6.778;2023-05-16T03:01:31;19.50;90.80
921;DHT22;447;51.332;6.778;2023-05-16T03:03:57;19.40;90.80
921;DHT22;447;51.332;6.778;2023-05-16T03:06:25;19.50;90.90
921;DHT22;447;51.332;6.778;2023-05-16T03:08:51;19.40;90.80
921;DHT22;447;51.332;6.778;2023-05-16T03:11:20;19.40;90.80
921;DHT22;447;51.332;6.778;2023-05-16T03:13:47;19.40;90.80
921;DHT22;447;51.332;6.778;2023-05-16T03:16:13;19.30;90.70
921;DHT22;447;51.332;6.778;2023-05-16T03:18:42;19.30;90.60
921;DHT22;447;51.332;6.778;2023-05-16T03:21:10;19.30;90.60
921;DHT22;447;51.332;6.778;2023-05-16T03:23:43;19.30;90.60
921;DHT22;447;51.332;6.778;2023-05-16T03:26:09;19.30;90.60
921;DHT22;447;51.332;6.778;2023-05-16T03:28:37;19.20;90.50
921;DHT22;447;51.332;6.778;2023-05-16T03:31:03;19.20;90.50
921;DHT22;447;51.332;6.778;2023-05-16T03:33:32;19.20;90.40
921;DHT22;447;51.332;6.778;2023-05-16T03:36:02;19.20;90.40
921;DHT22;447;51.332;6.778;2023-05-16T03:38:28;19.10;90.30
921;DHT22;447;51.332;6.778;2023-05-16T03:40:54;19.10;90.30
921;DHT22;447;51.332;6.778;2023-05-16T03:43:23;19.10;90.40
921;DHT22;447;51.332;6.778;2023-05-16T03:45:49;19.10;90.30
921;DHT22;447;51.332;6.778;2023-05-16T03:48:15;19.10;90.30
921;DHT22;447;51.332;6.778;2023-05-16T03:50:43;19.10;90.30
921;DHT22;447;51.332;6.778;2023-05-16T03:53:11;19.00;90.20
921;DHT22;447;51.332;6.778;2023-05-16T03:55:37;19.00;90.20
921;DHT22;447;51.332;6.778;2023-05-16T03:58:05;19.00;90.10
921;DHT22;447;51.332;6.778;2023-05-16T04:00:33;19.00;90.10
921;DHT22;447;51.332;6.778;2023-05-16T04:03:01;19.00;90.20
921;DHT22;447;51.332;6.778;2023-05-16T04:05:27;19.00;90.20
921;DHT22;447;51.332;6.778;2023-05-16T04:07:54;18.90;90.20
921;DHT22;447;51.332;6.778;2023-05-16T04:10:22;18.90;90.20
921;DHT22;447;51.332;6.778;2023-05-16T04:12:50;18.90;90.20
921;DHT22;447;51.332;6.778;2023-05-16T04:15:16;18.90;90.20
921;DHT22;447;51.332;6.778;2023-05-16T04:18:21;18.90;90.20
921;DHT22;447;51.332;6.778;2023-05-16T04:20:46;18.90;90.20
921;DHT22;447;51.332;6.778;2023-05-16T04:23:15;18.90;90.30
921;DHT22;447;51.332;6.778;2023-05-16T04:25:44;18.80;90.20
921;DHT22;447;51.332;6.778;2023-05-16T04:28:12;18.80;90.30
921;DHT22;447;51.332;6.778;2023-05-16T04:30:43;18.80;90.20
921;DHT22;447;51.332;6.778;2023-05-16T04:33:09;18.80;90.20
921;DHT22;447;51.332;6.778;2023-05-16T04:35:37;18.80;90.30
921;DHT22;447;51.332;6.778;2023-05-16T04:38:03;18.70;90.20
921;DHT22;447;51.332;6.778;2023-05-16T04:40:31;18.70;90.10
921;DHT22;447;51.332;6.778;2023-05-16T04:42:59;18.70;90.10
921;DHT22;447;51.332;6.778;2023-05-16T04:45:25;18.70;90.10
921;DHT22;447;51.332;6.778;2023-05-16T04:47:51;18.70;90.10
921;DHT22;447;51.332;6.778;2023-05-16T04:50:17;18.70;90.10
921;DHT22;447;51.332;6.778;2023-05-16T04:52:46;18.60;90.00
921;DHT22;447;51.332;6.778;2023-05-16T04:55:11;18.60;90.10
921;DHT22;447;51.332;6.778;2023-05-16T04:57:40;18.60;90.00
921;DHT22;447;51.332;6.778;2023-05-16T05:00:06;18.60;90.00
921;DHT22;447;51.332;6.778;2023-05-16T05:02:33;18.60;90.00
921;DHT22;447;51.332;6.778;2023-05-16T05:04:59;18.50;90.00
921;DHT22;447;51.332;6.778;2023-05-16T05:07:25;18.60;90.00
921;DHT22;447;51.332;6.778;2023-05-16T05:09:53;18.50;89.90
921;DHT22;447;51.332;6.778;2023-05-16T05:12:21;18.50;89.80
921;DHT22;447;51.332;6.778;2023-05-16T05:14:50;18.50;90.00
921;DHT22;447;51.332;6.778;2023-05-16T05:17:25;18.50;90.00
921;DHT22;447;51.332;6.778;2023-05-16T05:19:55;18.50;90.00
921;DHT22;447;51.332;6.778;2023-05-16T05:22:24;18.40;89.90
921;DHT22;447;51.332;6.778;2023-05-16T05:24:50;18.40;89.90
921;DHT22;447;51.332;6.778;2023-05-16T05:27:18;18.40;89.80
921;DHT22;447;51.332;6.778;2023-05-16T05:29:44;18.40;89.80
921;DHT22;447;51.332;6.778;2023-05-16T05:32:12;18.40;89.80
921;DHT22;447;51.332;6.778;2023-05-16T05:34:40;18.40;89.80
921;DHT22;447;51.332;6.778;2023-05-16T05:37:06;18.30;89.80
921;DHT22;447;51.332;6.778;2023-05-16T05:39:32;18.30;89.80
921;DHT22;447;51.332;6.778;2023-05-16T05:41:58;18.30;90.00
921;DHT22;447;51.332;6.778;2023-05-16T05:44:24;18.30;89.80
921;DHT22;447;51.332;6.778;2023-05-16T05:46:50;18.30;89.70
921;DHT22;447;51.332;6.778;2023-05-16T05:49:21;18.20;89.60
921;DHT22;447;51.332;6.778;2023-05-16T05:51:52;18.30;89.50
921;DHT22;447;51.332;6.778;2023-05-16T05:54:19;18.20;89.40
921;DHT22;447;51.332;6.778;2023-05-16T05:56:47;18.20;89.30
921;DHT22;447;51.332;6.778;2023-05-16T05:59:14;18.20;89.20
921;DHT22;447;51.332;6.778;2023-05-16T06:01:40;18.20;89.30
921;DHT22;447;51.332;6.778;2023-05-16T06:04:09;18.10;89.20
921;DHT22;447;51.332;6.778;2023-05-16T06:06:36;18.10;89.20
921;DHT22;447;51.332;6.778;2023-05-16T06:09:02;18.10;89.20
921;DHT22;447;51.332;6.778;2023-05-16T06:11:28;18.10;89.40
921;DHT22;447;51.332;6.778;2023-05-16T06:13:54;18.10;89.40
921;DHT22;447;51.332;6.778;2023-05-16T06:16:23;18.10;89.40
921;DHT22;447;51.332;6.778;2023-05-16T06:18:52;18.10;89.50
921;DHT22;447;51.332;6.778;2023-05-16T06:21:20;18.10;89.60
921;DHT22;447;51.332;6.778;2023-05-16T06:23:46;18.00;89.50
921;DHT22;447;51.332;6.778;2023-05-16T06:26:12;18.00;89.50
921;DHT22;447;51.332;6.778;2023-05-16T06:28:38;18.00;89.50
921;DHT22;447;51.332;6.778;2023-05-16T06:31:04;18.00;89.50
921;DHT22;447;51.332;6.778;2023-05-16T06:33:30;18.00;89.60
921;DHT22;447;51.332;6.778;2023-05-16T06:35:56;18.00;89.60
921;DHT22;447;51.332;6.778;2023-05-16T06:38:22;18.00;89.50
921;DHT22;447;51.332;6.778;2023-05-16T06:40:50;18.00;89.30
921;DHT22;447;51.332;6.778;2023-05-16T06:43:19;18.00;89.50
921;DHT22;447;51.332;6.778;2023-05-16T06:45:45;17.90;89.40
921;DHT22;447;51.332;6.778;2023-05-16T06:48:16;17.90;89.40
921;DHT22;447;51.332;6.778;2023-05-16T06:50:46;17.90;89.30
921;DHT22;447;51.332;6.778;2023-05-16T06:53:15;17.90;89.50
921;DHT22;447;51.332;6.778;2023-05-16T06:55:41;17.90;89.50
921;DHT22;447;51.332;6.778;2023-05-16T06:58:07;17.90;89.60
921;DHT22;447;51.332;6.778;2023-05-16T07:00:33;17.90;89.70
921;DHT22;447;51.332;6.778;2023-05-16T07:03:02;18.00;89.90
921;DHT22;447;51.332;6.778;2023-05-16T07:05:28;17.90;89.70
921;DHT22;447;51.332;6.778;2023-05-16T07:07:56;17.90;89.70
921;DHT22;447;51.332;6.778;2023-05-16T07:10:25;17.90;89.80
921;DHT22;447;51.332;6.778;2023-05-16T07:12:55;17.90;89.80
921;DHT22;447;51.332;6.778;2023-05-16T07:15:22;17.90;89.70
921;DHT22;447;51.332;6.778;2023-05-16T07:17:48;17.90;89.60
921;DHT22;447;51.332;6.778;2023-05-16T07:20:17;17.90;89.50
921;DHT22;447;51.332;6.778;2023-05-16T07:22:43;17.80;89.20
921;DHT22;447;51.332;6.778;2023-05-16T07:25:09;17.90;89.10
921;DHT22;447;51.332;6.778;2023-05-16T07:27:40;17.80;89.00
921;DHT22;447;51.332;6.778;2023-05-16T07:30:08;17.80;89.10
921;DHT22;447;51.332;6.778;2023-05-16T07:32:34;17.80;89.20
921;DHT22;447;51.332;6.778;2023-05-16T07:35:04;17.80;89.00
921;DHT22;447;51.332;6.778;2023-05-16T07:37:30;17.80;88.90
921;DHT22;447;51.332;6.778;2023-05-16T07:40:01;17.80;88.80
921;DHT22;447;51.332;6.778;2023-05-16T07:42:28;17.80;88.80
921;DHT22;447;51.332;6.778;2023-05-16T07:44:56;17.70;88.60
921;DHT22;447;51.332;6.778;2023-05-16T07:47:22;17.70;88.60
921;DHT22;447;51.332;6.778;2023-05-16T07:49:50;17.70;88.70
921;DHT22;447;51.332;6.778;2023-05-16T07:52:26;17.70;88.70
921;DHT22;447;51.332;6.778;2023-05-16T07:54:52;17.70;88.70
921;DHT22;447;51.332;6.778;2023-05-16T07:57:18;17.70;88.80
921;DHT22;447;51.332;6.778;2023-05-16T07:59:44;17.70;88.80
921;DHT22;447;51.332;6.778;2023-05-16T08:02:11;17.70;88.80
921;DHT22;447;51.332;6.778;2023-05-16T08:04:39;17.70;88.70
921;DHT22;447;51.332;6.778;2023-05-16T08:07:06;17.70;88.40
921;DHT22;447;51.332;6.778;2023-05-16T08:09:32;17.70;88.10
921;DHT22;447;51.332;6.778;2023-05-16T08:11:58;17.70;88.10
921;DHT22;447;51.332;6.778;2023-05-16T08:14:30;17.70;87.90
921;DHT22;447;51.332;6.778;2023-05-16T08:16:59;17.70;87.70
921;DHT22;447;51.332;6.778;2023-05-16T08:19:28;17.70;87.50
921;DHT22;447;51.332;6.778;2023-05-16T08:21:54;17.60;87.40
921;DHT22;447;51.332;6.778;2023-05-16T08:24:20;17.60;87.10
921;DHT22;447;51.332;6.778;2023-05-16T08:26:46;17.60;86.80
921;DHT22;447;51.332;6.778;2023-05-16T08:29:12;17.60;86.70
921;DHT22;447;51.332;6.778;2023-05-16T08:31:39;17.60;86.60
921;DHT22;447;51.332;6.778;2023-05-16T08:34:08;17.60;86.60
921;DHT22;447;51.332;6.778;2023-05-16T08:36:38;17.60;86.70
921;DHT22;447;51.332;6.778;2023-05-16T08:39:06;17.70;86.80
921;DHT22;447;51.332;6.778;2023-05-16T08:41:32;17.70;86.50
921;DHT22;447;51.332;6.778;2023-05-16T08:43:58;17.70;86.40
921;DHT22;447;51.332;6.778;2023-05-16T08:46:24;17.70;86.20
921;DHT22;447;51.332;6.778;2023-05-16T08:48:53;17.70;86.10
921;DHT22;447;51.332;6.778;2023-05-16T08:51:20;17.70;86.40
921;DHT22;447;51.332;6.778;2023-05-16T08:53:56;17.70;86.50
921;DHT22;447;51.332;6.778;2023-05-16T08:56:24;17.70;86.10
921;DHT22;447;51.332;6.778;2023-05-16T08:58:51;17.70;86.40
921;DHT22;447;51.332;6.778;2023-05-16T09:01:21;17.70;86.70
921;DHT22;447;51.332;6.778;2023-05-16T09:03:51;17.70;86.70
921;DHT22;447;51.332;6.778;2023-05-16T09:06:17;17.70;86.70
921;DHT22;447;51.332;6.778;2023-05-16T09:08:44;17.80;86.90
921;DHT22;447;51.332;6.778;2023-05-16T09:11:11;17.80;86.80
921;DHT22;447;51.332;6.778;2023-05-16T09:13:38;17.80;86.80
921;DHT22;447;51.332;6.778;2023-05-16T09:16:11;17.80;86.80
921;DHT22;447;51.332;6.778;2023-05-16T09:18:43;17.80;86.80
921;DHT22;447;51.332;6.778;2023-05-16T09:21:10;17.80;86.90
921;DHT22;447;51.332;6.778;2023-05-16T09:23:37;17.80;86.80
921;DHT22;447;51.332;6.778;2023-05-16T09:26:06;17.80;86.70
921;DHT22;447;51.332;6.778;2023-05-16T09:28:36;17.80;86.60
921;DHT22;447;51.332;6.778;2023-05-16T09:31:02;17.80;86.20
921;DHT22;447;51.332;6.778;2023-05-16T09:33:29;17.80;86.10
921;DHT22;447;51.332;6.778;2023-05-16T09:35:59;17.80;85.50
921;DHT22;447;51.332;6.778;2023-05-16T09:38:27;17.80;85.00
921;DHT22;447;51.332;6.778;2023-05-16T09:40:53;17.80;85.20
921;DHT22;447;51.332;6.778;2023-05-16T09:43:25;17.80;85.30
921;DHT22;447;51.332;6.778;2023-05-16T09:45:52;17.90;85.50
921;DHT22;447;51.332;6.778;2023-05-16T09:48:20;17.90;85.50
921;DHT22;447;51.332;6.778;2023-05-16T09:50:48;17.90;85.40
921;DHT22;447;51.332;6.778;2023-05-16T09:53:37;17.90;85.50
921;DHT22;447;51.332;6.778;2023-05-16T09:56:05;17.90;84.50
921;DHT22;447;51.332;6.778;2023-05-16T09:58:38;17.90;84.40
921;DHT22;447;51.332;6.778;2023-05-16T10:01:10;18.00;84.80
921;DHT22;447;51.332;6.778;2023-05-16T10:03:38;18.00;85.00
921;DHT22;447;51.332;6.778;2023-05-16T10:06:05;18.00;85.30
921;DHT22;447;51.332;6.778;2023-05-16T10:08:33;18.00;85.20
921;DHT22;447;51.332;6.778;2023-05-16T10:11:03;18.00;84.90
921;DHT22;447;51.332;6.778;2023-05-16T10:13:31;18.10;84.80
921;DHT22;447;51.332;6.778;2023-05-16T10:15:59;18.10;84.80
921;DHT22;447;51.332;6.778;2023-05-16T10:18:30;18.10;85.00
921;DHT22;447;51.332;6.778;2023-05-16T10:21:00;18.10;84.80
921;DHT22;447;51.332;6.778;2023-05-16T10:23:28;18.10;84.90
921;DHT22;447;51.332;6.778;2023-05-16T10:25:57;18.10;85.20
921;DHT22;447;51.332;6.778;2023-05-16T10:28:23;18.10;85.30
921;DHT22;447;51.332;6.778;2023-05-16T10:30:50;18.10;84.90
921;DHT22;447;51.332;6.778;2023-05-16T10:33:18;18.10;84.80
921;DHT22;447;51.332;6.778;2023-05-16T10:35:44;18.10;85.30
921;DHT22;447;51.332;6.778;2023-05-16T10:38:16;18.10;84.00
921;DHT22;447;51.332;6.778;2023-05-16T10:40:44;18.10;83.60
921;DHT22;447;51.332;6.778;2023-05-16T10:43:41;18.10;83.60
921;DHT22;447;51.332;6.778;2023-05-16T10:46:09;18.20;83.60
921;DHT22;447;51.332;6.778;2023-05-16T10:48:38;18.20;83.10
921;DHT22;447;51.332;6.778;2023-05-16T10:54:09;18.20;83.00
921;DHT22;447;51.332;6.778;2023-05-16T10:56:39;18.20;83.10
921;DHT22;447;51.332;6.778;2023-05-16T10:59:22;18.20;83.30
921;DHT22;447;51.332;6.778;2023-05-16T11:01:54;18.20;83.40
921;DHT22;447;51.332;6.778;2023-05-16T11:04:21;18.20;83.80
921;DHT22;447;51.332;6.778;2023-05-16T11:06:52;18.20;83.70
921;DHT22;447;51.332;6.778;2023-05-16T11:09:21;18.20;83.60
921;DHT22;447;51.332;6.778;2023-05-16T11:17:13;18.20;84.30
921;DHT22;447;51.332;6.778;2023-05-16T11:19:42;18.20;84.10
921;DHT22;447;51.332;6.778;2023-05-16T11:22:33;18.20;83.40
921;DHT22;447;51.332;6.778;2023-05-16T11:25:07;18.30;84.00
921;DHT22;447;51.332;6.778;2023-05-16T11:27:41;18.30;84.00
921;DHT22;447;51.332;6.778;2023-05-16T11:32:43;18.30;83.60
921;DHT22;447;51.332;6.778;2023-05-16T11:35:13;18.30;83.50
921;DHT22;447;51.332;6.778;2023-05-16T11:37:40;18.40;83.80
921;DHT22;447;51.332;6.778;2023-05-16T11:40:07;18.40;83.70
921;DHT22;447;51.332;6.778;2023-05-16T11:42:35;18.40;82.70
921;DHT22;447;51.332;6.778;2023-05-16T11:47:38;18.50;83.20
921;DHT22;447;51.332;6.778;2023-05-16T11:50:24;18.50;83.30
921;DHT22;447;51.332;6.778;2023-05-16T11:52:52;18.50;83.60
921;DHT22;447;51.332;6.778;2023-05-16T11:55:24;18.50;83.30
921;DHT22;447;51.332;6.778;2023-05-16T11:57:51;18.50;83.40
921;DHT22;447;51.332;6.778;2023-05-16T12:00:22;18.50;83.00
921;DHT22;447;51.332;6.778;2023-05-16T12:02:49;18.50;82.40
921;DHT22;447;51.332;6.778;2023-05-16T12:05:17;18.50;82.30
921;DHT22;447;51.332;6.778;2023-05-16T12:07:44;18.60;82.70
921;DHT22;447;51.332;6.778;2023-05-16T12:10:14;18.50;83.00
921;DHT22;447;51.332;6.778;2023-05-16T12:12:43;18.60;83.30
921;DHT22;447;51.332;6.778;2023-05-16T12:15:10;18.60;83.30
921;DHT22;447;51.332;6.778;2023-05-16T12:17:38;18.60;83.10
921;DHT22;447;51.332;6.778;2023-05-16T12:20:06;18.60;82.90
921;DHT22;447;51.332;6.778;2023-05-16T12:22:39;18.60;82.60
921;DHT22;447;51.332;6.778;2023-05-16T12:25:26;18.60;82.90
921;DHT22;447;51.332;6.778;2023-05-16T12:28:00;18.60;82.80
921;DHT22;447;51.332;6.778;2023-05-16T12:30:28;18.60;82.50
921;DHT22;447;51.332;6.778;2023-05-16T12:33:01;18.70;82.70
921;DHT22;447;51.332;6.778;2023-05-16T12:35:31;18.70;82.80
921;DHT22;447;51.332;6.778;2023-05-16T12:37:58;18.70;82.30
921;DHT22;447;51.332;6.778;2023-05-16T12:40:30;18.70;82.50
921;DHT22;447;51.332;6.778;2023-05-16T12:42:57;18.70;82.40
921;DHT22;447;51.332;6.778;2023-05-16T12:45:23;18.80;82.20
921;DHT22;447;51.332;6.778;2023-05-16T12:47:49;18.80;82.60
921;DHT22;447;51.332;6.778;2023-05-16T12:50:15;18.80;82.40
921;DHT22;447;51.332;6.778;2023-05-16T12:52:51;18.80;82.00
921;DHT22;447;51.332;6.778;2023-05-16T12:55:19;18.80;81.90
921;DHT22;447;51.332;6.778;2023-05-16T12:57:48;18.90;81.70
921;DHT22;447;51.332;6.778;2023-05-16T13:00:19;18.80;80.90
921;DHT22;447;51.332;6.778;2023-05-16T13:02:46;18.90;81.50
921;DHT22;447;51.332;6.778;2023-05-16T13:05:12;18.90;80.70
921;DHT22;447;51.332;6.778;2023-05-16T13:07:38;18.90;80.20
921;DHT22;447;51.332;6.778;2023-05-16T13:10:11;18.90;79.90
921;DHT22;447;51.332;6.778;2023-05-16T13:12:39;18.90;79.50
921;DHT22;447;51.332;6.778;2023-05-16T13:15:06;19.00;79.40
921;DHT22;447;51.332;6.778;2023-05-16T13:17:33;19.00;78.70
921;DHT22;447;51.332;6.778;2023-05-16T13:20:00;19.00;78.60
921;DHT22;447;51.332;6.778;2023-05-16T13:22:27;19.00;78.00
921;DHT22;447;51.332;6.778;2023-05-16T13:24:53;19.10;78.50
921;DHT22;447;51.332;6.778;2023-05-16T13:27:19;19.10;78.80
921;DHT22;447;51.332;6.778;2023-05-16T13:29:45;19.10;78.90
921;DHT22;447;51.332;6.778;2023-05-16T13:32:12;19.10;78.90
921;DHT22;447;51.332;6.778;2023-05-16T13:34:38;19.10;78.80
921;DHT22;447;51.332;6.778;2023-05-16T13:37:04;19.20;78.80
921;DHT22;447;51.332;6.778;2023-05-16T13:39:29;19.20;78.70
921;DHT22;447;51.332;6.778;2023-05-16T13:41:55;19.20;78.80
921;DHT22;447;51.332;6.778;2023-05-16T13:44:21;19.20;79.00
921;DHT22;447;51.332;6.778;2023-05-16T13:46:47;19.30;78.80
921;DHT22;447;51.332;6.778;2023-05-16T13:49:13;19.20;78.50
921;DHT22;447;51.332;6.778;2023-05-16T13:51:39;19.30;79.30
921;DHT22;447;51.332;6.778;2023-05-16T13:54:05;19.30;78.40
921;DHT22;447;51.332;6.778;2023-05-16T13:56:31;19.30;78.20
921;DHT22;447;51.332;6.778;2023-05-16T13:58:57;19.40;78.40
921;DHT22;447;51.332;6.778;2023-05-16T14:01:24;19.40;78.40
921;DHT22;447;51.332;6.778;2023-05-16T14:03:50;19.40;78.10
921;DHT22;447;51.332;6.778;2023-05-16T14:06:16;19.40;77.80
921;DHT22;447;51.332;6.778;2023-05-16T14:08:42;19.40;77.60
921;DHT22;447;51.332;6.778;2023-05-16T14:11:08;19.40;77.50
921;DHT22;447;51.332;6.778;2023-05-16T14:13:36;19.40;77.10
921;DHT22;447;51.332;6.778;2023-05-16T14:16:05;19.40;76.40
921;DHT22;447;51.332;6.778;2023-05-16T14:18:32;19.40;77.40
921;DHT22;447;51.332;6.778;2023-05-16T14:20:58;19.40;76.90
921;DHT22;447;51.332;6.778;2023-05-16T14:23:24;19.40;77.30
921;DHT22;447;51.332;6.778;2023-05-16T14:25:50;19.40;77.00
921;DHT22;447;51.332;6.778;2023-05-16T14:28:16;19.40;76.90
921;DHT22;447;51.332;6.778;2023-05-16T14:30:42;19.50;76.90
921;DHT22;447;51.332;6.778;2023-05-16T14:33:07;19.40;76.60
921;DHT22;447;51.332;6.778;2023-05-16T14:35:34;19.50;76.10
921;DHT22;447;51.332;6.778;2023-05-16T14:38:03;19.50;76.10
921;DHT22;447;51.332;6.778;2023-05-16T14:40:29;19.50;76.00
921;DHT22;447;51.332;6.778;2023-05-16T14:42:55;19.50;76.00
921;DHT22;447;51.332;6.778;2023-05-16T14:45:21;19.50;76.10
921;DHT22;447;51.332;6.778;2023-05-16T14:47:47;19.50;76.30
921;DHT22;447;51.332;6.778;2023-05-16T14:50:13;19.50;76.50
921;DHT22;447;51.332;6.778;2023-05-16T14:52:39;19.50;76.40
921;DHT22;447;51.332;6.778;2023-05-16T14:55:05;19.50;76.30
921;DHT22;447;51.332;6.778;2023-05-16T14:57:31;19.50;76.50
921;DHT22;447;51.332;6.778;2023-05-16T14:59:57;19.60;76.60
921;DHT22;447;51.332;6.778;2023-05-16T15:02:23;19.60;76.70
921;DHT22;447;51.332;6.778;2023-05-16T15:04:51;19.60;76.70
921;DHT22;447;51.332;6.778;2023-05-16T15:07:17;19.60;76.50
921;DHT22;447;51.332;6.778;2023-05-16T15:09:43;19.60;76.10
921;DHT22;447;51.332;6.778;2023-05-16T15:12:09;19.60;75.80
921;DHT22;447;51.332;6.778;2023-05-16T15:14:35;19.60;76.10
921;DHT22;447;51.332;6.778;2023-05-16T15:17:01;19.60;75.90
921;DHT22;447;51.332;6.778;2023-05-16T15:19:28;19.60;76.10
921;DHT22;447;51.332;6.778;2023-05-16T15:21:54;19.60;76.30
921;DHT22;447;51.332;6.778;2023-05-16T15:24:20;19.60;76.50
921;DHT22;447;51.332;6.778;2023-05-16T15:26:46;19.60;76.50
921;DHT22;447;51.332;6.778;2023-05-16T15:29:12;19.60;76.10
921;DHT22;447;51.332;6.778;2023-05-16T15:31:38;19.60;76.10
921;DHT22;447;51.332;6.778;2023-05-16T15:34:03;19.60;75.80
921;DHT22;447;51.332;6.778;2023-05-16T15:36:34;19.60;75.70
921;DHT22;447;51.332;6.778;2023-05-16T15:39:00;19.60;76.10
921;DHT22;447;51.332;6.778;2023-05-16T15:41:26;19.60;76.40
921;DHT22;447;51.332;6.778;2023-05-16T15:43:52;19.60;76.50
921;DHT22;447;51.332;6.778;2023-05-16T15:46:21;19.60;76.80
921;DHT22;447;51.332;6.778;2023-05-16T15:48:47;19.60;77.10
921;DHT22;447;51.332;6.778;2023-05-16T15:51:13;19.60;77.30
921;DHT22;447;51.332;6.778;2023-05-16T15:54:03;19.60;76.90
921;DHT22;447;51.332;6.778;2023-05-16T15:56:29;19.60;76.60
921;DHT22;447;51.332;6.778;2023-05-16T15:59:00;19.60;76.50
921;DHT22;447;51.332;6.778;2023-05-16T16:01:26;19.60;76.50
921;DHT22;447;51.332;6.778;2023-05-16T16:03:52;19.60;76.20
921;DHT22;447;51.332;6.778;2023-05-16T16:06:18;19.60;76.00
921;DHT22;447;51.332;6.778;2023-05-16T16:08:44;19.60;76.00
921;DHT22;447;51.332;6.778;2023-05-16T16:11:10;19.60;76.20
921;DHT22;447;51.332;6.778;2023-05-16T16:13:36;19.60;76.40
921;DHT22;447;51.332;6.778;2023-05-16T16:16:02;19.50;76.40
921;DHT22;447;51.332;6.778;2023-05-16T16:18:29;19.50;76.40
921;DHT22;447;51.332;6.778;2023-05-16T16:20:55;19.50;76.40
921;DHT22;447;51.332;6.778;2023-05-16T16:23:20;19.50;76.70
921;DHT22;447;51.332;6.778;2023-05-16T16:25:46;19.50;77.10
921;DHT22;447;51.332;6.778;2023-05-16T16:28:12;19.50;77.30
921;DHT22;447;51.332;6.778;2023-05-16T16:30:38;19.50;77.40
921;DHT22;447;51.332;6.778;2023-05-16T16:33:04;19.50;77.30
921;DHT22;447;51.332;6.778;2023-05-16T16:36:00;19.50;77.10
921;DHT22;447;51.332;6.778;2023-05-16T16:38:26;19.50;77.10
921;DHT22;447;51.332;6.778;2023-05-16T16:40:52;19.50;77.10
921;DHT22;447;51.332;6.778;2023-05-16T16:43:18;19.50;77.30
921;DHT22;447;51.332;6.778;2023-05-16T16:45:44;19.50;77.30
921;DHT22;447;51.332;6.778;2023-05-16T16:48:10;19.50;77.30
921;DHT22;447;51.332;6.778;2023-05-16T16:50:36;19.50;77.30
921;DHT22;447;51.332;6.778;2023-05-16T16:53:02;19.40;77.30
921;DHT22;447;51.332;6.778;2023-05-16T16:55:29;19.40;77.20
921;DHT22;447;51.332;6.778;2023-05-16T16:57:55;19.40;77.40